Time;durP1;ratioP1;P1;durP2;ratioP2;P2;SDS_P1;SDS_P2;PMS_P1;PMS_P2;Temp;Humidity;BMP_temperature;BMP_pressure;BME280_temperature;BME280_humidity;BME280_pressure;Samples;Min_cycle;Max_cycle;Signal;HPM_P1;HPM_P2
2023/07/04 00:01:58;;;;;;;2.20;1.75;;;;;;;26.13;82.03;99953.16;5093823;28;20730;-68
2023/07/04 00:04:29;;;;;;;2.38;1.73;;;;;;;26.26;81.72;99949.88;5112395;28;20672;-69
2023/07/04 00:06:56;;;;;;;2.28;1.70;;;;;;;26.18;81.29;99952.09;5112579;28;20645;-68
2023/07/04 00:09:23;;;;;;;2.75;1.80;;;;;;;26.07;81.69;99940.19;5112451;28;20583;-67
2023/07/04 00:11:50;;;;;;;1.70;1.60;;;;;;;26.12;81.51;99953.22;5112725;28;20625;-67
2023/07/04 00:14:17;;;;;;;1.85;1.67;;;;;;;26.05;82.25;99968.63;5112333;28;20240;-68
2023/07/04 00:16:44;;;;;;;2.15;1.80;;;;;;;25.64;82.00;99892.78;5112620;28;20309;-67
2023/07/04 00:19:11;;;;;;;1.65;1.52;;;;;;;26.15;81.67;99955.72;5112340;28;20719;-67
2023/07/04 00:21:41;;;;;;;1.90;1.70;;;;;;;26.28;80.80;99948.03;5112174;28;20653;-67
2023/07/04 00:24:08;;;;;;;2.03;1.75;;;;;;;26.24;80.32;99946.47;5112465;28;20190;-67
2023/07/04 00:26:35;;;;;;;1.40;1.30;;;;;;;26.14;81.08;99952.22;5112448;28;20201;-68
2023/07/04 00:29:01;;;;;;;2.55;2.05;;;;;;;26.04;80.99;99945.63;5112173;28;20285;-67
2023/07/04 00:31:29;;;;;;;1.52;1.42;;;;;;;26.05;81.70;99952.69;5092731;28;20270;-69
2023/07/04 00:33:56;;;;;;;1.60;1.50;;;;;;;25.58;81.31;99885.09;5112587;28;20236;-68
2023/07/04 00:36:23;;;;;;;1.52;1.42;;;;;;;25.98;82.10;99955.72;5112201;28;20225;-68
2023/07/04 00:38:56;;;;;;;1.70;1.60;;;;;;;25.95;82.69;99964.72;5112144;28;20579;-68
2023/07/04 00:41:24;;;;;;;1.48;1.38;;;;;;;25.92;82.78;99958.69;5112287;28;20197;-68
2023/07/04 00:44:00;;;;;;;1.63;1.50;;;;;;;26.03;82.16;99954.56;5112135;28;20194;-68
2023/07/04 00:46:38;;;;;;;1.88;1.70;;;;;;;25.93;82.81;99961.28;5112008;28;20197;-68
2023/07/04 00:49:18;;;;;;;1.77;1.67;;;;;;;25.98;82.75;99961.03;5112175;28;20568;-67
2023/07/04 00:51:52;;;;;;;1.77;1.60;;;;;;;25.70;84.45;99947.38;5111669;28;20280;-68
2023/07/04 00:54:25;;;;;;;1.58;1.48;;;;;;;25.83;84.22;99967.97;5111962;28;20670;-68
2023/07/04 00:56:56;;;;;;;1.52;1.42;;;;;;;25.76;85.09;99965.69;5111588;28;20259;-68
2023/07/04 00:59:23;;;;;;;1.92;1.73;;;;;;;25.77;84.65;99968.28;5111754;28;20189;-68
2023/07/04 01:01:50;;;;;;;1.60;1.50;;;;;;;25.74;85.58;99972.88;5111598;28;20280;-68
2023/07/04 01:04:17;;;;;;;1.92;1.70;;;;;;;25.62;86.06;99969.88;5111843;28;20201;-68
2023/07/04 01:06:51;;;;;;;2.38;1.80;;;;;;;25.73;86.78;99968.50;5111477;28;20648;-68
2023/07/04 01:09:21;;;;;;;1.67;1.58;;;;;;;25.52;86.20;99955.31;5111707;28;20192;-67
2023/07/04 01:11:49;;;;;;;1.80;1.70;;;;;;;25.62;86.75;99974.31;5075630;28;20571;-68
2023/07/04 01:14:21;;;;;;;1.52;1.42;;;;;;;25.65;86.10;99963.53;5111458;28;20197;-67
2023/07/04 01:16:49;;;;;;;1.80;1.70;;;;;;;25.57;87.40;99971.91;5111190;28;20229;-68
2023/07/04 01:19:25;;;;;;;1.58;1.48;;;;;;;25.57;87.18;99965.72;5111320;28;20673;-68
2023/07/04 01:22:01;;;;;;;1.63;1.52;;;;;;;25.43;88.23;99942.47;5110658;28;20292;-68
2023/07/04 01:24:40;;;;;;;2.05;1.80;;;;;;;25.53;87.50;99959.72;5111216;28;20205;-67
2023/07/04 01:27:08;;;;;;;2.03;1.73;;;;;;;25.39;88.83;99955.97;5091930;28;20602;-68
2023/07/04 01:29:36;;;;;;;1.70;1.60;;;;;;;25.35;89.59;99970.31;5111461;28;20667;-68
2023/07/04 01:32:03;;;;;;;1.70;1.60;;;;;;;25.21;90.17;99957.69;5075863;28;20270;-68
2023/07/04 01:34:33;;;;;;;1.77;1.67;;;;;;;25.26;90.49;99965.41;5111131;28;20204;-68
2023/07/04 01:37:01;;;;;;;1.73;1.63;;;;;;;25.29;90.52;99966.16;5110707;28;20253;-68
2023/07/04 01:39:28;;;;;;;1.70;1.60;;;;;;;25.35;90.62;99979.13;5110996;28;20204;-67
2023/07/04 01:41:55;;;;;;;1.50;1.40;;;;;;;25.24;90.85;99977.91;5110936;28;20887;-68
2023/07/04 01:44:24;;;;;;;1.60;1.50;;;;;;;25.28;91.85;99979.50;5110375;28;20197;-68
2023/07/04 01:46:52;;;;;;;1.50;1.40;;;;;;;25.27;91.14;99973.31;5110919;28;20228;-68
2023/07/04 01:49:19;;;;;;;1.58;1.48;;;;;;;25.15;92.35;99973.88;5111246;28;20193;-69
2023/07/04 01:51:47;;;;;;;1.70;1.60;;;;;;;25.26;91.55;99981.34;5111002;28;20197;-69
2023/07/04 01:54:18;;;;;;;1.50;1.40;;;;;;;25.33;91.26;99985.47;5110940;28;20280;-68
2023/07/04 01:56:47;;;;;;;1.55;1.45;;;;;;;25.27;92.04;99988.38;5110576;28;20282;-68
2023/07/04 01:59:14;;;;;;;1.60;1.50;;;;;;;25.22;92.57;99996.53;5110688;28;20265;-68
2023/07/04 02:01:43;;;;;;;1.60;1.50;;;;;;;25.15;93.87;99998.63;5111240;28;20202;-68
2023/07/04 02:04:09;;;;;;;1.60;1.50;;;;;;;24.98;94.48;99982.63;5092078;28;20251;-68
2023/07/04 02:06:36;;;;;;;1.50;1.40;;;;;;;25.05;94.97;99993.81;5110686;28;20322;-68
2023/07/04 02:09:04;;;;;;;2.00;1.80;;;;;;;24.95;95.56;99998.69;5110794;28;20193;-69
2023/07/04 02:11:30;;;;;;;1.55;1.45;;;;;;;24.86;96.38;99998.25;5110627;28;20223;-68
2023/07/04 02:13:59;;;;;;;1.60;1.50;;;;;;;24.75;96.13;99990.72;5110794;28;20667;-68
2023/07/04 02:16:26;;;;;;;1.75;1.65;;;;;;;24.63;97.61;99992.13;5110055;28;20248;-68
2023/07/04 02:18:54;;;;;;;1.70;1.60;;;;;;;24.71;99.22;99996.22;5110675;28;20209;-68
2023/07/04 02:21:21;;;;;;;2.13;1.70;;;;;;;24.61;100.00;99993.97;5110247;28;20205;-68
2023/07/04 02:23:48;;;;;;;2.70;2.33;;;;;;;24.65;97.53;100000.00;5110729;28;20266;-68
2023/07/04 02:26:14;;;;;;;1.40;1.30;;;;;;;24.68;96.90;99999.88;5110068;28;20201;-68
2023/07/04 02:28:41;;;;;;;1.60;1.50;;;;;;;24.61;98.23;100001.91;5110598;28;20647;-68
2023/07/04 02:31:08;;;;;;;2.35;1.88;;;;;;;24.57;98.28;99996.84;5110398;28;20202;-68
2023/07/04 02:33:35;;;;;;;1.50;1.40;;;;;;;24.62;98.65;100002.78;5110642;28;20301;-68
2023/07/04 02:36:04;;;;;;;1.67;1.58;;;;;;;24.72;98.80;100003.25;5109323;28;20447;-68
2023/07/04 02:38:30;;;;;;;1.83;1.60;;;;;;;24.79;99.34;100002.94;5091518;28;20665;-68
2023/07/04 02:40:57;;;;;;;2.05;1.70;;;;;;;24.73;99.95;99997.88;5110323;28;20210;-68
2023/07/04 02:43:24;;;;;;;1.95;1.73;;;;;;;24.61;100.00;100004.56;5110514;28;20194;-68
2023/07/04 02:45:51;;;;;;;1.88;1.67;;;;;;;24.57;100.00;99992.41;5110239;28;20202;-68
2023/07/04 02:48:19;;;;;;;1.88;1.75;;;;;;;24.67;100.00;100003.47;5110270;28;20213;-68
2023/07/04 02:50:45;;;;;;;2.15;1.77;;;;;;;24.62;100.00;100002.78;5110505;28;20193;-67
2023/07/04 02:53:20;;;;;;;2.03;1.73;;;;;;;24.62;100.00;100006.31;5110394;28;20213;-68
2023/07/04 02:55:47;;;;;;;2.03;1.70;;;;;;;24.40;100.00;100009.97;5112493;28;20228;-68
2023/07/04 02:58:14;;;;;;;1.85;1.65;;;;;;;24.42;100.00;100006.31;5094885;28;20197;-68
2023/07/04 03:00:41;;;;;;;2.17;1.83;;;;;;;24.42;100.00;100003.66;5114038;28;20197;-68
2023/07/04 03:03:08;;;;;;;2.38;1.92;;;;;;;24.45;100.00;100007.97;5094847;28;20194;-67
2023/07/04 03:05:35;;;;;;;1.67;1.58;;;;;;;24.52;100.00;99994.38;5113784;28;20236;-68
2023/07/04 03:08:01;;;;;;;1.90;1.58;;;;;;;24.56;100.00;100021.63;5113881;28;20193;-70
2023/07/04 03:10:30;;;;;;;1.88;1.70;;;;;;;24.84;100.00;100016.00;5113414;28;20200;-71
2023/07/04 03:12:56;;;;;;;1.95;1.73;;;;;;;24.84;100.00;100008.03;5113567;28;20203;-69
2023/07/04 03:15:24;;;;;;;2.25;2.05;;;;;;;24.97;100.00;100011.91;5113348;28;20290;-69
2023/07/04 03:17:51;;;;;;;1.90;1.73;;;;;;;25.13;100.00;99995.19;5113728;28;20773;-68
2023/07/04 03:20:18;;;;;;;1.60;1.50;;;;;;;25.54;99.84;100011.03;5113670;28;20198;-68
2023/07/04 03:22:45;;;;;;;1.77;1.67;;;;;;;25.96;96.43;100000.97;5113779;28;20197;-69
2023/07/04 03:25:14;;;;;;;1.75;1.65;;;;;;;26.42;94.15;100006.66;5113146;28;20591;-68
2023/07/04 03:27:42;;;;;;;1.70;1.55;;;;;;;26.83;90.38;100013.38;5113827;27;20193;-73
2023/07/04 03:30:11;;;;;;;1.95;1.80;;;;;;;27.06;87.63;100015.69;5113034;28;20197;-68
2023/07/04 03:32:37;;;;;;;1.80;1.70;;;;;;;27.31;84.92;100019.69;5077457;28;20201;-68
2023/07/04 03:35:05;;;;;;;1.73;1.60;;;;;;;27.59;81.51;100010.13;5113340;28;20198;-68
2023/07/04 03:37:33;;;;;;;1.75;1.65;;;;;;;28.06;79.72;100017.22;5113241;28;20225;-68
2023/07/04 03:40:01;;;;;;;1.73;1.63;;;;;;;28.25;78.33;100006.38;5112740;28;20201;-69
2023/07/04 03:42:28;;;;;;;1.60;1.50;;;;;;;28.78;75.22;100028.09;5113333;28;20275;-69
2023/07/04 03:44:56;;;;;;;1.38;1.27;;;;;;;29.00;72.03;100022.28;5112788;28;20205;-68
2023/07/04 03:47:22;;;;;;;1.50;1.40;;;;;;;29.50;70.46;100040.53;5113061;28;20201;-68
2023/07/04 03:49:49;;;;;;;1.75;1.65;;;;;;;29.86;66.30;100034.63;5112025;28;20255;-68
2023/07/04 03:52:16;;;;;;;1.65;1.55;;;;;;;29.88;64.54;100035.41;5112938;28;20197;-68
2023/07/04 03:54:43;;;;;;;1.80;1.70;;;;;;;29.88;64.62;100044.28;5112937;28;20208;-69
2023/07/04 03:57:10;;;;;;;1.80;1.70;;;;;;;30.15;64.20;100040.75;5112502;28;20239;-68
2023/07/04 03:59:37;;;;;;;1.70;1.60;;;;;;;30.58;62.41;100039.59;5112519;28;20205;-69
2023/07/04 04:02:05;;;;;;;1.65;1.55;;;;;;;30.97;59.39;100030.66;5112141;28;20705;-68
2023/07/04 04:04:36;;;;;;;1.67;1.58;;;;;;;30.92;58.40;100044.38;5110451;28;20266;-68
2023/07/04 04:07:03;;;;;;;2.03;1.83;;;;;;;31.02;57.03;100051.78;5108232;28;20584;-68
2023/07/04 04:09:29;;;;;;;1.70;1.60;;;;;;;30.96;56.94;100053.06;5111984;28;20226;-68
2023/07/04 04:11:56;;;;;;;1.60;1.50;;;;;;;30.73;57.71;100040.38;5112340;28;20269;-68
2023/07/04 04:14:23;;;;;;;1.63;1.52;;;;;;;30.93;57.55;100047.88;5111332;28;20245;-68
2023/07/04 04:16:50;;;;;;;1.40;1.30;;;;;;;31.07;56.51;100052.34;5112068;28;20236;-68
2023/07/04 04:19:18;;;;;;;1.60;1.50;;;;;;;31.33;57.61;100059.38;5109056;28;20654;-67
2023/07/04 04:21:45;;;;;;;1.67;1.58;;;;;;;31.58;57.79;100058.50;5111425;28;20211;-68
2023/07/04 04:24:12;;;;;;;1.42;1.33;;;;;;;32.07;56.57;100064.72;5111454;28;20215;-68
2023/07/04 04:26:40;;;;;;;1.20;1.20;;;;;;;32.35;54.53;100060.84;5111777;28;20196;-74
2023/07/04 04:29:07;;;;;;;2.17;2.00;;;;;;;32.50;53.61;100075.78;5110734;28;20253;-69
2023/07/04 04:31:37;;;;;;;1.90;1.65;;;;;;;31.74;53.91;100059.13;5110636;28;20859;-68
2023/07/04 04:34:04;;;;;;;1.58;1.48;;;;;;;31.88;55.15;100059.84;5109383;28;20270;-69
2023/07/04 04:36:33;;;;;;;1.90;1.70;;;;;;;32.09;54.50;100056.56;5104007;28;20224;-69
2023/07/04 04:39:00;;;;;;;1.90;1.63;;;;;;;32.52;53.80;100073.84;5110625;28;20201;-69
2023/07/04 04:41:27;;;;;;;1.60;1.50;;;;;;;32.88;52.95;100081.81;5111120;28;20193;-69
2023/07/04 04:43:54;;;;;;;1.67;1.52;;;;;;;33.19;50.30;100090.19;5111428;28;20670;-69
2023/07/04 04:46:21;;;;;;;1.50;1.40;;;;;;;33.10;50.48;100097.13;5101211;28;20200;-69
2023/07/04 04:48:49;;;;;;;1.95;1.70;;;;;;;32.99;50.71;100077.44;5100591;28;20196;-70
2023/07/04 04:51:15;;;;;;;2.08;1.95;;;;;;;33.47;50.28;100099.63;5089682;28;20655;-68
2023/07/04 04:53:45;;;;;;;1.85;1.63;;;;;;;34.04;48.78;100094.09;5110914;28;20636;-72
2023/07/04 04:56:12;;;;;;;1.60;1.50;;;;;;;34.12;49.32;100081.72;5110163;28;20297;-69
2023/07/04 04:58:43;;;;;;;1.85;1.65;;;;;;;34.19;48.38;100100.94;5110029;28;20197;-68
2023/07/04 05:01:14;;;;;;;2.00;1.80;;;;;;;34.32;47.35;100107.00;5111241;28;20233;-68
2023/07/04 05:03:41;;;;;;;1.70;1.60;;;;;;;34.60;46.96;100103.75;5110550;28;20201;-68
2023/07/04 05:06:08;;;;;;;1.50;1.40;;;;;;;34.34;46.29;100103.22;5099122;28;20201;-69
2023/07/04 05:08:35;;;;;;;1.45;1.35;;;;;;;34.64;46.30;100107.06;5111024;28;20687;-68
2023/07/04 05:11:06;;;;;;;1.50;1.40;;;;;;;34.31;46.58;100103.50;5110711;28;20188;-72
2023/07/04 05:13:33;;;;;;;1.48;1.38;;;;;;;34.13;45.85;100109.53;5106151;28;20197;-69
2023/07/04 05:16:00;;;;;;;1.65;1.55;;;;;;;33.70;47.33;100104.06;5105590;28;20236;-70
2023/07/04 05:18:27;;;;;;;1.73;1.63;;;;;;;34.02;46.16;100109.50;5098067;28;20221;-68
2023/07/04 05:21:00;;;;;;;1.73;1.63;;;;;;;33.84;48.62;100126.19;5099018;28;20652;-68
2023/07/04 05:23:29;;;;;;;1.88;1.77;;;;;;;33.67;46.97;100121.31;5101324;28;20720;-68
2023/07/04 05:26:01;;;;;;;1.50;1.40;;;;;;;33.58;47.65;100121.13;5106375;28;20193;-69
2023/07/04 05:28:29;;;;;;;1.63;1.52;;;;;;;33.43;48.84;100104.38;5099708;28;20254;-68
2023/07/04 05:30:59;;;;;;;1.60;1.50;;;;;;;33.26;48.87;100124.53;5109545;28;20580;-67
2023/07/04 05:33:26;;;;;;;1.63;1.52;;;;;;;33.38;49.24;100128.97;5108545;28;20269;-67
2023/07/04 05:36:03;;;;;;;1.45;1.35;;;;;;;33.44;49.11;100122.22;5107429;28;20200;-68
2023/07/04 05:38:30;;;;;;;1.60;1.50;;;;;;;32.94;51.55;100115.41;5105674;28;20246;-67
2023/07/04 05:40:56;;;;;;;1.60;1.50;;;;;;;33.08;51.30;100111.63;5109623;28;20688;-67
2023/07/04 05:43:23;;;;;;;1.70;1.60;;;;;;;33.58;49.78;100123.81;5110288;28;20662;-67
2023/07/04 05:45:53;;;;;;;1.58;1.48;;;;;;;33.60;51.90;100121.88;5110687;28;20208;-68
2023/07/04 05:48:20;;;;;;;1.50;1.40;;;;;;;33.36;50.50;100100.47;5110785;28;20651;-67
2023/07/04 05:50:54;;;;;;;1.40;1.30;;;;;;;33.98;49.51;100121.50;5094332;28;20197;-68
2023/07/04 05:53:25;;;;;;;1.77;1.67;;;;;;;33.59;49.84;100112.94;5103110;28;20224;-67
2023/07/04 05:55:52;;;;;;;1.60;1.50;;;;;;;33.71;50.20;100124.59;5103878;28;20686;-70
2023/07/04 05:58:19;;;;;;;1.60;1.50;;;;;;;33.42;50.50;100118.81;5103672;28;20232;-70
2023/07/04 06:00:47;;;;;;;1.63;1.52;;;;;;;33.25;50.24;100117.44;5094416;28;20197;-70
2023/07/04 06:03:17;;;;;;;1.73;1.63;;;;;;;33.01;51.04;100102.34;5073896;28;20203;-70
2023/07/04 06:05:45;;;;;;;2.00;1.90;;;;;;;32.72;51.99;100116.19;5107580;28;20645;-70
2023/07/04 06:08:11;;;;;;;4.40;2.03;;;;;;;32.38;53.35;100114.31;5101588;28;20223;-70
2023/07/04 06:10:38;;;;;;;1.83;1.70;;;;;;;32.33;54.85;100117.31;5099133;28;20198;-70
2023/07/04 06:13:05;;;;;;;1.67;1.58;;;;;;;31.98;54.94;100121.72;5096121;28;20286;-70
2023/07/04 06:15:32;;;;;;;1.75;1.65;;;;;;;31.91;54.91;100117.75;5095971;28;20233;-70
2023/07/04 06:17:59;;;;;;;1.70;1.60;;;;;;;31.93;55.73;100113.13;5105015;28;20231;-70
2023/07/04 06:20:27;;;;;;;2.30;2.03;;;;;;;32.08;54.97;100125.47;5104644;28;20296;-70
2023/07/04 06:22:54;;;;;;;1.70;1.60;;;;;;;31.71;56.77;100118.34;5106334;28;20582;-70
2023/07/04 06:25:21;;;;;;;1.98;1.77;;;;;;;32.20;54.92;100124.56;5101048;28;20227;-71
2023/07/04 06:27:48;;;;;;;1.70;1.60;;;;;;;31.95;55.85;100104.03;5106132;28;20568;-70
2023/07/04 06:30:15;;;;;;;1.58;1.48;;;;;;;32.17;58.09;100102.47;5111614;28;20260;-70
2023/07/04 06:32:41;;;;;;;1.70;1.60;;;;;;;32.13;57.76;100092.94;5114604;28;20211;-70
2023/07/04 06:35:09;;;;;;;1.95;1.77;;;;;;;32.60;55.84;100109.06;5113953;28;20660;-71
2023/07/04 06:37:37;;;;;;;1.70;1.60;;;;;;;32.27;56.39;100106.19;5113836;28;20328;-70
2023/07/04 06:40:05;;;;;;;1.80;1.70;;;;;;;32.01;58.35;100109.88;5114759;28;20219;-70
2023/07/04 06:42:33;;;;;;;1.73;1.63;;;;;;;31.18;61.79;100081.91;5114091;28;20209;-70
2023/07/04 06:45:00;;;;;;;1.52;1.42;;;;;;;30.70;67.03;100097.69;5114567;27;20329;-67
2023/07/04 06:47:26;;;;;;;1.90;1.80;;;;;;;30.33;66.20;100090.34;5114326;28;20254;-67
2023/07/04 06:49:53;;;;;;;2.00;1.80;;;;;;;30.12;69.61;100105.16;5114142;28;20694;-67
2023/07/04 06:52:20;;;;;;;1.90;1.70;;;;;;;30.10;69.75;100074.97;5113946;28;20205;-67
2023/07/04 06:54:51;;;;;;;1.70;1.60;;;;;;;30.11;72.21;100098.09;5113934;28;20204;-67
2023/07/04 06:57:18;;;;;;;2.10;1.90;;;;;;;29.82;72.60;100041.97;5077674;28;20225;-67
2023/07/04 06:59:45;;;;;;;2.10;1.90;;;;;;;30.19;71.82;100111.81;5077978;28;20217;-67
2023/07/04 07:02:14;;;;;;;2.17;1.98;;;;;;;30.13;72.53;100106.88;5078240;28;20243;-67
2023/07/04 07:04:41;;;;;;;1.60;1.50;;;;;;;30.28;70.58;100112.09;5113816;28;20233;-67
2023/07/04 07:07:09;;;;;;;1.98;1.73;;;;;;;30.33;72.30;100106.41;5113722;28;20204;-68
2023/07/04 07:09:38;;;;;;;1.77;1.67;;;;;;;30.30;71.64;100086.06;5113667;27;20240;-68
2023/07/04 07:12:08;;;;;;;1.75;1.65;;;;;;;30.46;73.60;100104.69;5078299;28;20205;-67
2023/07/04 07:14:35;;;;;;;1.60;1.50;;;;;;;30.31;70.66;100105.66;5078001;28;20590;-67
2023/07/04 07:17:02;;;;;;;2.03;1.80;;;;;;;30.37;69.85;100099.91;5108369;28;20236;-67
2023/07/04 07:19:29;;;;;;;1.80;1.70;;;;;;;30.61;73.46;100102.81;5089765;28;20197;-71
2023/07/04 07:21:56;;;;;;;1.63;1.52;;;;;;;30.73;73.08;100104.63;5075498;28;20193;-70
2023/07/04 07:24:23;;;;;;;1.63;1.52;;;;;;;30.82;71.16;100096.81;5101640;28;20197;-69
2023/07/04 07:26:50;;;;;;;1.90;1.77;;;;;;;30.68;67.91;100106.78;5109792;28;20204;-68
2023/07/04 07:29:20;;;;;;;2.15;1.95;;;;;;;30.84;67.75;100086.88;5102918;28;20723;-68
2023/07/04 07:31:49;;;;;;;1.70;1.60;;;;;;;30.59;67.64;100100.22;5113454;28;20675;-67
2023/07/04 07:34:16;;;;;;;2.00;1.80;;;;;;;30.17;69.45;100081.63;5093743;28;20588;-67
2023/07/04 07:36:43;;;;;;;2.47;2.28;;;;;;;30.52;69.18;100103.41;5106756;28;20205;-67
2023/07/04 07:39:12;;;;;;;1.80;1.70;;;;;;;30.66;69.62;100106.88;5111928;28;20216;-67
2023/07/04 07:41:42;;;;;;;1.80;1.67;;;;;;;30.78;69.12;100111.41;5110495;28;20201;-69
2023/07/04 07:44:10;;;;;;;1.70;1.60;;;;;;;30.70;68.57;100086.97;5112834;28;20249;-70
2023/07/04 07:46:38;;;;;;;2.13;1.95;;;;;;;30.88;69.58;100101.78;5112812;28;20205;-69
2023/07/04 07:49:05;;;;;;;1.52;1.42;;;;;;;30.47;71.82;100095.69;5101437;28;20292;-68
2023/07/04 07:51:32;;;;;;;1.85;1.70;;;;;;;30.60;69.96;100104.63;5112592;28;20266;-68
2023/07/04 07:54:00;;;;;;;1.60;1.48;;;;;;;30.11;72.12;100093.59;5113005;28;20208;-69
2023/07/04 07:56:34;;;;;;;2.55;2.33;;;;;;;29.99;75.40;100099.75;5112644;28;20209;-69
2023/07/04 07:59:01;;;;;;;1.55;1.45;;;;;;;29.58;75.42;100018.63;5101075;28;20218;-70
2023/07/04 08:01:30;;;;;;;1.98;1.70;;;;;;;30.44;72.98;100106.59;5113011;28;20208;-70
2023/07/04 08:03:59;;;;;;;1.73;1.60;;;;;;;30.37;74.26;100105.25;5104986;28;20209;-70
2023/07/04 08:06:28;;;;;;;1.63;1.52;;;;;;;30.59;76.57;100113.59;5101517;28;20310;-69
2023/07/04 08:08:57;;;;;;;1.60;1.50;;;;;;;30.70;75.47;100107.53;5112531;28;20216;-70
2023/07/04 08:11:25;;;;;;;1.88;1.75;;;;;;;30.78;73.78;100108.75;5112313;28;20197;-70
2023/07/04 08:13:53;;;;;;;2.00;1.80;;;;;;;30.78;74.75;100110.56;5112712;28;20205;-70
2023/07/04 08:16:22;;;;;;;2.00;1.80;;;;;;;30.79;74.89;100090.81;5104989;28;20584;-70
2023/07/04 08:18:49;;;;;;;1.67;1.58;;;;;;;30.78;73.18;100099.84;5104058;28;20267;-70
2023/07/04 08:21:18;;;;;;;2.20;1.77;;;;;;;30.72;74.08;100101.09;5076534;28;20201;-71
2023/07/04 08:23:45;;;;;;;1.88;1.70;;;;;;;30.76;75.18;100078.50;5103916;28;20273;-71
2023/07/04 08:26:17;;;;;;;2.08;1.58;;;;;;;30.65;75.02;100083.75;5112067;28;20209;-72
2023/07/04 08:28:43;;;;;;;2.30;1.90;;;;;;;30.63;75.49;100096.38;5112175;28;20204;-71
2023/07/04 08:31:11;;;;;;;2.70;1.90;;;;;;;30.71;72.29;100101.22;5112347;28;20205;-71
2023/07/04 08:33:38;;;;;;;1.73;1.63;;;;;;;30.69;70.83;100085.25;5111900;28;20680;-71
2023/07/04 08:36:08;;;;;;;2.10;1.80;;;;;;;30.66;71.09;100064.03;5111977;28;20200;-71
2023/07/04 08:38:37;;;;;;;1.75;1.65;;;;;;;31.03;71.89;100099.06;5111776;28;20233;-71
2023/07/04 08:41:10;;;;;;;1.70;1.60;;;;;;;30.87;69.00;100094.72;5112065;28;20644;-71
2023/07/04 08:43:46;;;;;;;1.88;1.70;;;;;;;30.60;69.05;100079.66;5112202;28;20618;-71
2023/07/04 08:46:16;;;;;;;1.63;1.52;;;;;;;30.66;72.61;100077.44;5111755;28;20207;-71
2023/07/04 08:48:44;;;;;;;2.33;1.65;;;;;;;31.21;71.13;100092.41;5111838;28;20212;-70
2023/07/04 08:51:18;;;;;;;3.50;2.53;;;;;;;31.39;69.85;100085.75;5111700;28;20216;-71
2023/07/04 08:53:53;;;;;;;1.63;1.52;;;;;;;31.34;69.40;100082.53;5076723;28;20525;-72
2023/07/04 08:56:28;;;;;;;1.75;1.55;;;;;;;31.14;71.65;100091.13;5111753;28;20614;-71
2023/07/04 08:59:07;;;;;;;1.85;1.65;;;;;;;31.02;72.03;100090.16;5077468;28;20232;-71
2023/07/04 09:01:47;;;;;;;2.25;1.80;;;;;;;31.18;72.77;100088.09;5111283;28;20193;-71
2023/07/04 09:04:19;;;;;;;3.35;2.00;;;;;;;31.41;75.24;100084.69;5111585;28;20871;-71
2023/07/04 09:06:56;;;;;;;2.38;1.88;;;;;;;31.56;71.32;100085.44;5111480;28;20256;-71
2023/07/04 09:09:30;;;;;;;2.95;2.00;;;;;;;31.20;73.34;100072.78;5111641;28;20208;-71
2023/07/04 09:11:57;;;;;;;1.80;1.70;;;;;;;31.31;72.54;100082.75;5111091;28;20208;-71
2023/07/04 09:14:33;;;;;;;2.00;1.67;;;;;;;31.30;71.45;100032.78;5111405;28;20216;-71
2023/07/04 09:17:04;;;;;;;2.13;1.70;;;;;;;31.63;73.20;100084.03;5107878;28;20223;-70
2023/07/04 09:19:36;;;;;;;2.25;1.60;;;;;;;31.74;71.76;100080.59;5064172;28;20225;-68
2023/07/04 09:22:07;;;;;;;2.20;1.88;;;;;;;31.92;72.16;100089.97;5105616;28;20262;-68
2023/07/04 09:24:35;;;;;;;1.80;1.60;;;;;;;31.59;71.03;100076.31;5101878;28;20194;-67
2023/07/04 09:27:03;;;;;;;2.20;1.60;;;;;;;31.55;72.46;100072.13;5066163;28;20208;-69
2023/07/04 09:29:31;;;;;;;1.95;1.55;;;;;;;31.66;73.14;100083.81;5105632;28;20205;-67
2023/07/04 09:32:01;;;;;;;3.42;2.00;;;;;;;32.03;72.74;100079.31;5096484;28;20679;-68
2023/07/04 09:34:33;;;;;;;2.35;1.95;;;;;;;31.95;71.35;100084.38;5098200;28;20274;-67
2023/07/04 09:37:08;;;;;;;2.15;1.70;;;;;;;31.88;70.36;100075.94;5098961;28;20205;-68
2023/07/04 09:39:48;;;;;;;2.72;1.90;;;;;;;31.58;69.29;100037.91;5109989;28;20213;-68
2023/07/04 09:42:16;;;;;;;2.80;1.75;;;;;;;31.84;70.09;100078.94;5107530;28;20207;-68
2023/07/04 09:44:44;;;;;;;2.63;1.88;;;;;;;31.84;70.53;100071.75;5109975;28;20613;-67
2023/07/04 09:47:20;;;;;;;2.65;1.77;;;;;;;31.96;68.04;100078.88;5110773;28;20216;-68
2023/07/04 09:49:48;;;;;;;2.20;1.73;;;;;;;32.11;67.12;100070.72;5111027;28;20208;-68
2023/07/04 09:52:24;;;;;;;2.15;1.80;;;;;;;32.24;66.31;100074.22;5110783;28;20196;-67
2023/07/04 09:57:45;;;;;;;3.38;1.52;;;;;;;32.26;62.79;100015.91;5088234;27;20542;-67
2023/07/04 10:00:20;;;;;;;2.50;1.83;;;;;;;32.23;61.83;100067.13;5069310;28;20670;-67
2023/07/04 10:02:48;;;;;;;2.33;1.75;;;;;;;32.28;61.73;100067.66;5088026;28;20616;-66
2023/07/04 10:05:26;;;;;;;1.92;1.70;;;;;;;32.70;63.41;100071.63;5088148;28;20656;-66
2023/07/04 10:08:06;;;;;;;2.35;1.88;;;;;;;32.76;60.76;100072.00;5081306;28;20214;-67
2023/07/04 10:10:35;;;;;;;1.80;1.50;;;;;;;32.89;61.62;100067.38;5085724;28;20225;-67
2023/07/04 10:13:05;;;;;;;2.00;1.70;;;;;;;33.14;59.03;100066.34;5087550;28;20201;-67
2023/07/04 10:15:43;;;;;;;2.22;1.70;;;;;;;32.49;58.39;100036.50;5087996;28;20197;-66
2023/07/04 10:18:24;;;;;;;6.28;2.42;;;;;;;32.72;58.04;100069.66;5086485;28;20205;-68
2023/07/04 10:20:54;;;;;;;2.38;1.83;;;;;;;32.78;56.45;100063.84;5087054;28;20220;-67
2023/07/04 10:23:22;;;;;;;2.00;1.80;;;;;;;32.53;55.33;100000.38;5087376;28;20280;-67
2023/07/04 10:25:50;;;;;;;1.75;1.58;;;;;;;32.54;52.64;100002.06;5052189;28;20280;-67
2023/07/04 10:28:22;;;;;;;2.92;2.10;;;;;;;32.78;54.63;100059.31;5087458;28;20206;-67
2023/07/04 10:30:55;;;;;;;2.60;1.85;;;;;;;32.97;54.50;100052.50;5086824;28;20231;-67
2023/07/04 10:33:25;;;;;;;2.10;1.70;;;;;;;33.18;55.70;100056.22;5067774;28;20225;-67
2023/07/04 10:35:52;;;;;;;1.70;1.60;;;;;;;33.39;55.19;100047.31;5087036;28;20237;-67
2023/07/04 10:38:32;;;;;;;2.05;1.80;;;;;;;33.17;54.87;100044.63;5087251;28;20205;-67
2023/07/04 10:41:00;;;;;;;1.83;1.58;;;;;;;33.16;55.09;100047.44;5087010;28;20197;-68
2023/07/04 10:43:35;;;;;;;2.15;1.73;;;;;;;33.16;54.19;100047.44;5086531;28;20278;-68
2023/07/04 10:46:06;;;;;;;2.17;1.75;;;;;;;32.95;53.50;100046.41;5087266;28;20208;-67
2023/07/04 10:48:34;;;;;;;2.55;1.98;;;;;;;32.97;54.07;100042.59;5087154;28;20213;-67
2023/07/04 10:51:06;;;;;;;2.80;1.95;;;;;;;33.01;53.76;100038.72;5086603;28;20998;-67
2023/07/04 10:53:33;;;;;;;2.13;1.73;;;;;;;33.23;53.17;100044.13;5086626;28;20557;-67
2023/07/04 10:56:05;;;;;;;2.00;1.65;;;;;;;33.34;51.36;100036.06;5081505;28;20234;-69
2023/07/04 10:58:39;;;;;;;1.63;1.50;;;;;;;33.34;52.47;100040.59;5084232;28;20205;-67
2023/07/04 11:01:09;;;;;;;1.88;1.67;;;;;;;33.21;52.74;100035.31;5067300;28;20633;-67
2023/07/04 11:03:44;;;;;;;1.80;1.70;;;;;;;33.00;54.26;100014.66;5007368;28;20257;-67
2023/07/04 11:06:16;;;;;;;1.67;1.58;;;;;;;33.28;54.58;100000.78;5083978;28;20627;-66
2023/07/04 11:08:44;;;;;;;1.83;1.65;;;;;;;33.30;55.25;99999.66;5074525;28;20210;-67
2023/07/04 11:11:13;;;;;;;2.22;1.98;;;;;;;33.55;53.72;100006.59;5072862;28;20217;-66
2023/07/04 11:13:50;;;;;;;1.90;1.70;;;;;;;33.52;53.31;100022.97;5072662;28;20204;-66
2023/07/04 11:16:20;;;;;;;1.60;1.50;;;;;;;33.25;53.33;100017.13;5070840;28;20692;-66
2023/07/04 11:19:04;;;;;;;1.50;1.40;;;;;;;32.99;53.22;100010.25;5072102;28;20202;-67
2023/07/04 11:21:32;;;;;;;1.60;1.50;;;;;;;33.19;53.33;100009.56;5036350;28;20218;-67
2023/07/04 11:24:13;;;;;;;1.63;1.52;;;;;;;33.43;52.42;100007.56;5072594;28;20198;-67
2023/07/04 11:26:56;;;;;;;1.58;1.48;;;;;;;33.51;52.97;100002.44;5071213;28;20645;-67
2023/07/04 11:29:24;;;;;;;1.60;1.50;;;;;;;33.65;52.30;100004.88;5047232;28;20264;-67
2023/07/04 11:32:11;;;;;;;1.52;1.42;;;;;;;33.47;52.23;99995.59;5070165;28;20228;-67
2023/07/04 11:34:47;;;;;;;1.83;1.73;;;;;;;33.83;53.32;100003.38;5068746;28;20292;-66
2023/07/04 11:37:22;;;;;;;1.60;1.50;;;;;;;33.87;51.37;99994.06;5070301;28;20214;-67
2023/07/04 11:39:54;;;;;;;1.77;1.67;;;;;;;33.99;53.38;99977.91;5069397;28;20531;-67